Time,TemperatureF,DewpointF,PressureIn,WindDirection,WindDirectionDegrees,WindSpeedMPH,WindSpeedGustMPH,Humidity,HourlyPrecipIn,Conditions,Clouds,dailyrainin,SoftwareType,DateUTC
2013-04-14 00:02:00,27.0,24.0,-100.00,WSW,246,22.0,34.0,86,0.00,,,-99.99,,2013-04-14 06:02:00,
2013-04-14 00:12:00,27.0,24.0,-100.00,WSW,244,22.0,29.0,86,0.00,,,-99.99,,2013-04-14 06:12:00,
2013-04-14 00:22:00,27.0,23.0,-100.00,WSW,247,24.0,35.0,86,0.00,,,-99.99,,2013-04-14 06:22:00,
2013-04-14 00:32:00,27.0,23.0,-100.00,WSW,248,27.0,37.0,84,0.00,,,-99.99,,2013-04-14 06:32:00,
2013-04-14 00:42:00,27.0,22.0,-100.00,WSW,251,26.0,32.0,83,0.00,,,-99.99,,2013-04-14 06:42:00,
2013-04-14 00:52:00,27.0,22.0,-100.00,WSW,250,27.0,37.0,84,0.00,,,-99.99,,2013-04-14 06:52:00,
2013-04-14 01:02:00,26.0,22.0,-100.00,WSW,248,26.0,35.0,83,0.00,,,-99.99,,2013-04-14 07:02:00,
2013-04-14 01:12:00,26.0,21.0,-100.00,WSW,247,27.0,38.0,80,0.00,,,-99.99,,2013-04-14 07:12:00,
2013-04-14 01:22:00,26.0,21.0,-100.00,WSW,253,24.0,34.0,81,0.00,,,-99.99,,2013-04-14 07:22:00,
2013-04-14 01:32:00,26.0,20.0,-100.00,WSW,251,27.0,37.0,79,0.00,,,-99.99,,2013-04-14 07:32:00,
2013-04-14 01:42:00,25.0,18.0,-100.00,WSW,251,28.0,37.0,73,0.00,,,-99.99,,2013-04-14 07:42:00,
2013-04-14 01:52:00,25.0,17.0,-100.00,WSW,258,28.0,39.0,72,0.00,,,-99.99,,2013-04-14 07:52:00,
2013-04-14 02:02:00,24.0,17.0,-100.00,WSW,257,26.0,36.0,73,0.00,,,-99.99,,2013-04-14 08:02:00,
2013-04-14 02:12:00,24.0,16.0,-100.00,WSW,254,24.0,34.0,72,0.00,,,-99.99,,2013-04-14 08:12:00,
2013-04-14 02:22:00,24.0,15.0,-100.00,WSW,251,28.0,35.0,68,0.00,,,-99.99,,2013-04-14 08:22:00,
2013-04-14 02:32:00,23.0,15.0,-100.00,WSW,251,27.0,35.0,70,0.00,,,-99.99,,2013-04-14 08:32:00,
2013-04-14 02:42:00,23.0,15.0,-100.00,WSW,251,27.0,34.0,70,0.00,,,-99.99,,2013-04-14 08:42:00,
2013-04-14 02:52:00,23.0,15.0,-100.00,West,264,24.0,35.0,72,0.00,,,-99.99,,2013-04-14 08:52:00,
2013-04-14 03:03:00,22.0,15.0,-100.00,West,260,22.0,30.0,74,0.00,,,-99.99,,2013-04-14 09:03:00,
2013-04-14 03:12:00,22.0,15.0,-100.00,WSW,257,21.0,32.0,72,0.00,,,-99.99,,2013-04-14 09:12:00,
2013-04-14 03:22:00,22.0,14.0,-100.00,West,274,20.0,34.0,73,0.00,,,-99.99,,2013-04-14 09:22:00,
2013-04-14 03:32:00,22.0,13.0,-100.00,West,272,21.0,30.0,70,0.00,,,-99.99,,2013-04-14 09:32:00,
2013-04-14 03:42:00,21.0,13.0,-100.00,West,264,24.0,36.0,69,0.00,,,-99.99,,2013-04-14 09:42:00,
2013-04-14 03:53:00,21.0,11.0,-100.00,West,268,19.0,27.0,67,0.00,,,-99.99,,2013-04-14 09:53:00,
2013-04-14 04:03:00,21.0,11.0,-100.00,West,271,22.0,32.0,66,0.00,,,-99.99,,2013-04-14 10:03:00,
2013-04-14 04:12:00,20.0,11.0,-100.00,West,272,19.0,30.0,68,0.00,,,-99.99,,2013-04-14 10:12:00,
2013-04-14 04:23:00,20.0,10.0,-100.00,West,267,20.0,29.0,65,0.00,,,-99.99,,2013-04-14 10:23:00,
2013-04-14 04:32:00,20.0,10.0,-100.00,West,265,24.0,32.0,64,0.00,,,-99.99,,2013-04-14 10:32:00,
2013-04-14 04:42:00,20.0,9.0,-100.00,West,267,26.0,32.0,64,0.00,,,-99.99,,2013-04-14 10:42:00,
2013-04-14 04:52:00,19.0,9.0,-100.00,West,261,27.0,35.0,63,0.00,,,-99.99,,2013-04-14 10:52:00,
2013-04-14 05:02:00,19.0,10.0,-100.00,West,260,26.0,35.0,66,0.00,,,-99.99,,2013-04-14 11:02:00,
2013-04-14 05:22:00,19.0,9.0,-100.00,West,264,25.0,37.0,65,0.00,,,-99.99,,2013-04-14 11:22:00,
2013-04-14 05:32:00,19.0,9.0,-100.00,West,264,24.0,33.0,66,0.00,,,-99.99,,2013-04-14 11:32:00,
2013-04-14 05:42:00,19.0,10.0,-100.00,West,265,27.0,39.0,68,0.00,,,-99.99,,2013-04-14 11:42:00,
2013-04-14 05:52:00,19.0,10.0,-100.00,West,268,25.0,35.0,70,0.00,,,-99.99,,2013-04-14 11:52:00,
2013-04-14 06:02:00,19.0,11.0,-100.00,West,268,22.0,34.0,71,0.00,,,-99.99,,2013-04-14 12:02:00,
2013-04-14 06:12:00,18.0,11.0,-100.00,West,265,23.0,34.0,74,0.00,,,-99.99,,2013-04-14 12:12:00,
2013-04-14 06:21:00,17.0,14.0,-100.00,West,263,25.0,34.0,87,0.01,,,-99.99,,2013-04-14 12:21:00,
2013-04-14 06:32:00,17.0,13.0,-100.00,West,260,26.0,35.0,83,0.00,,,-99.99,,2013-04-14 12:32:00,
2013-04-14 06:42:00,18.0,12.0,-100.00,West,264,26.0,37.0,78,0.00,,,-99.99,,2013-04-14 12:42:00,
2013-04-14 06:51:00,18.0,12.0,-100.00,West,267,22.0,34.0,76,0.00,,,-99.99,,2013-04-14 12:51:00,
2013-04-14 07:02:00,18.0,12.0,-100.00,West,271,21.0,32.0,78,0.00,,,-99.99,,2013-04-14 13:02:00,
2013-04-14 07:12:00,18.0,12.0,-100.00,West,274,22.0,32.0,77,0.00,,,-99.99,,2013-04-14 13:12:00,
2013-04-14 07:22:00,17.0,12.0,-100.00,West,272,27.0,39.0,81,0.01,,,-99.99,,2013-04-14 13:22:00,
2013-04-14 07:32:00,17.0,12.0,-100.00,West,275,26.0,35.0,79,0.00,,,-99.99,,2013-04-14 13:32:00,
2013-04-14 07:42:00,17.0,11.0,-100.00,West,271,25.0,37.0,76,0.00,,,-99.99,,2013-04-14 13:42:00,
2013-04-14 07:52:00,17.0,10.0,-100.00,West,274,27.0,35.0,74,0.00,,,-99.99,,2013-04-14 13:52:00,
2013-04-14 08:02:00,17.0,9.0,-100.00,West,274,27.0,42.0,72,0.00,,,-99.99,,2013-04-14 14:02:00,
2013-04-14 08:12:00,16.0,10.0,-100.00,West,271,29.0,40.0,76,0.00,,,-99.99,,2013-04-14 14:12:00,
2013-04-14 08:22:00,16.0,11.0,-100.00,West,270,27.0,41.0,81,0.00,,,-99.99,,2013-04-14 14:22:00,
2013-04-14 08:32:00,15.0,12.0,-100.00,West,272,27.0,37.0,89,0.01,,,-99.99,,2013-04-14 14:32:00,
2013-04-14 08:42:00,15.0,11.0,-100.00,West,277,29.0,40.0,84,0.00,,,-99.99,,2013-04-14 14:42:00,
2013-04-14 08:52:00,16.0,12.0,-100.00,West,278,28.0,37.0,87,0.00,,,-99.99,,2013-04-14 14:52:00,
2013-04-14 09:02:00,15.0,13.0,-100.00,West,281,26.0,42.0,92,0.00,,,-99.99,,2013-04-14 15:02:00,
2013-04-14 09:12:00,15.0,13.0,-100.00,West,278,27.0,37.0,92,0.01,,,-99.99,,2013-04-14 15:12:00,
2013-04-14 09:22:00,15.0,13.0,-100.00,West,272,30.0,42.0,89,0.00,,,-99.99,,2013-04-14 15:22:00,
2013-04-14 09:33:00,15.0,13.0,-100.00,West,272,29.0,43.0,92,0.04,,,-99.99,,2013-04-14 15:33:00,
2013-04-14 09:43:00,15.0,13.0,-100.00,West,272,29.0,43.0,93,0.01,,,-99.99,,2013-04-14 15:43:00,
2013-04-14 09:52:00,16.0,13.0,-100.00,West,274,26.0,37.0,86,0.00,,,-99.99,,2013-04-14 15:52:00,
2013-04-14 10:04:00,17.0,12.0,-100.00,West,278,26.0,36.0,83,0.00,,,-99.99,,2013-04-14 16:04:00,
2013-04-14 10:13:00,17.0,12.0,-100.00,West,278,24.0,36.0,78,0.00,,,-99.99,,2013-04-14 16:13:00,
2013-04-14 10:22:00,18.0,10.0,-100.00,West,275,26.0,34.0,70,0.00,,,-99.99,,2013-04-14 16:22:00,
2013-04-14 10:32:00,19.0,10.0,-100.00,West,280,26.0,34.0,67,0.00,,,-99.99,,2013-04-14 16:32:00,
2013-04-14 10:43:00,19.0,10.0,-100.00,West,275,26.0,37.0,69,0.00,,,-99.99,,2013-04-14 16:43:00,
2013-04-14 10:53:00,20.0,10.0,-100.00,West,277,27.0,37.0,67,0.00,,,-99.99,,2013-04-14 16:53:00,
2013-04-14 11:02:00,20.0,11.0,-100.00,West,278,27.0,40.0,68,0.00,,,-99.99,,2013-04-14 17:02:00,
2013-04-14 11:12:00,20.0,11.0,-100.00,West,277,25.0,37.0,68,0.00,,,-99.99,,2013-04-14 17:12:00,
2013-04-14 11:22:00,21.0,10.0,-100.00,WNW,285,28.0,37.0,63,0.00,,,-99.99,,2013-04-14 17:22:00,
2013-04-14 11:32:00,21.0,10.0,-100.00,WNW,287,24.0,35.0,63,0.00,,,-99.99,,2013-04-14 17:32:00,
2013-04-14 11:42:00,21.0,9.0,-100.00,WNW,291,26.0,36.0,59,0.00,,,-99.99,,2013-04-14 17:42:00,
2013-04-14 11:52:00,22.0,9.0,-100.00,WNW,288,26.0,35.0,57,0.00,,,-99.99,,2013-04-14 17:52:00,
2013-04-14 12:02:00,22.0,10.0,-100.00,WNW,288,24.0,34.0,59,0.00,,,-99.99,,2013-04-14 18:02:00,
2013-04-14 12:12:00,22.0,8.0,-100.00,WNW,287,24.0,34.0,54,0.00,,,-99.99,,2013-04-14 18:12:00,
2013-04-14 12:22:00,23.0,10.0,-100.00,WNW,288,26.0,36.0,57,0.00,,,-99.99,,2013-04-14 18:22:00,
2013-04-14 12:32:00,22.0,8.0,-100.00,WNW,289,27.0,39.0,54,0.00,,,-99.99,,2013-04-14 18:32:00,
2013-04-14 12:42:00,23.0,8.0,-100.00,WNW,292,27.0,35.0,53,0.00,,,-99.99,,2013-04-14 18:42:00,
2013-04-14 12:52:00,24.0,7.0,-100.00,WNW,295,27.0,36.0,49,0.00,,,-99.99,,2013-04-14 18:52:00,
2013-04-14 13:03:00,24.0,8.0,-100.00,WNW,288,26.0,34.0,52,0.00,,,-99.99,,2013-04-14 19:03:00,
2013-04-14 13:12:00,24.0,8.0,-100.00,WNW,288,26.0,39.0,50,0.00,,,-99.99,,2013-04-14 19:12:00,
2013-04-14 13:22:00,23.0,6.0,-100.00,WNW,288,32.0,44.0,48,0.00,,,-99.99,,2013-04-14 19:22:00,
2013-04-14 13:32:00,24.0,9.0,-100.00,WNW,287,26.0,37.0,52,0.00,,,-99.99,,2013-04-14 19:32:00,
2013-04-14 13:52:00,24.0,7.0,-100.00,WNW,289,27.0,39.0,48,0.00,,,-99.99,,2013-04-14 19:52:00,
2013-04-14 14:02:00,24.0,6.0,-100.00,WNW,287,27.0,42.0,46,0.00,,,-99.99,,2013-04-14 20:02:00,
2013-04-14 14:12:00,24.0,6.0,-100.00,WNW,287,28.0,37.0,45,0.00,,,-99.99,,2013-04-14 20:12:00,
2013-04-14 14:22:00,25.0,6.0,-100.00,WNW,289,29.0,39.0,43,0.00,,,-99.99,,2013-04-14 20:22:00,
2013-04-14 14:33:00,26.0,5.0,-100.00,WNW,289,28.0,38.0,41,0.00,,,-99.99,,2013-04-14 20:33:00,
2013-04-14 14:42:00,26.0,5.0,-100.00,WNW,291,27.0,35.0,41,0.00,,,-99.99,,2013-04-14 20:42:00,
2013-04-14 14:52:00,25.0,4.0,-100.00,WNW,287,29.0,42.0,40,0.00,,,-99.99,,2013-04-14 20:52:00,
2013-04-14 15:02:00,25.0,9.0,-100.00,WNW,298,26.0,35.0,50,0.00,,,-99.99,,2013-04-14 21:02:00,
2013-04-14 15:12:00,26.0,7.0,-100.00,WNW,292,24.0,35.0,44,0.00,,,-99.99,,2013-04-14 21:12:00,
2013-04-14 15:22:00,26.0,7.0,-100.00,WNW,288,26.0,35.0,44,0.00,,,-99.99,,2013-04-14 21:22:00,
2013-04-14 15:33:00,25.0,9.0,-100.00,WNW,296,24.0,35.0,50,0.00,,,-99.99,,2013-04-14 21:33:00,
2013-04-14 15:43:00,25.0,7.0,-100.00,WNW,295,26.0,37.0,45,0.00,,,-99.99,,2013-04-14 21:43:00,
2013-04-14 15:53:00,25.0,5.0,-100.00,WNW,282,28.0,39.0,41,0.00,,,-99.99,,2013-04-14 21:53:00,
2013-04-14 16:03:00,25.0,6.0,-100.00,West,280,29.0,42.0,44,0.00,,,-99.99,,2013-04-14 22:03:00,
2013-04-14 16:12:00,26.0,6.0,-100.00,WNW,285,27.0,39.0,42,0.00,,,-99.99,,2013-04-14 22:12:00,
2013-04-14 16:23:00,25.0,6.0,-100.00,West,281,24.0,35.0,44,0.00,,,-99.99,,2013-04-14 22:23:00,
2013-04-14 16:32:00,26.0,5.0,-100.00,WNW,284,28.0,43.0,41,0.00,,,-99.99,,2013-04-14 22:32:00,
2013-04-14 16:43:00,26.0,6.0,-100.00,WNW,284,28.0,36.0,43,0.00,,,-99.99,,2013-04-14 22:43:00,
2013-04-14 16:52:00,26.0,5.0,-100.00,West,278,26.0,37.0,41,0.00,,,-99.99,,2013-04-14 22:52:00,
2013-04-14 17:02:00,26.0,5.0,-100.00,WNW,284,28.0,42.0,39,0.00,,,-99.99,,2013-04-14 23:02:00,
2013-04-14 17:12:00,26.0,4.0,-100.00,WNW,285,28.0,40.0,39,0.00,,,-99.99,,2013-04-14 23:12:00,
2013-04-14 17:22:00,26.0,5.0,-100.00,WNW,284,28.0,38.0,41,0.00,,,-99.99,,2013-04-14 23:22:00,
2013-04-14 17:33:00,26.0,5.0,-100.00,WNW,287,24.0,32.0,40,0.00,,,-99.99,,2013-04-14 23:33:00,
2013-04-14 17:42:00,27.0,4.0,-100.00,WNW,292,24.0,32.0,36,0.00,,,-99.99,,2013-04-14 23:42:00,
2013-04-14 17:52:00,26.0,4.0,-100.00,West,281,24.0,39.0,39,0.00,,,-99.99,,2013-04-14 23:52:00,
2013-04-14 18:02:00,27.0,4.0,-100.00,West,281,23.0,35.0,38,0.00,,,-99.99,,2013-04-15 00:02:00,
2013-04-14 18:12:00,27.0,4.0,-100.00,WNW,287,23.0,32.0,36,0.00,,,-99.99,,2013-04-15 00:12:00,
2013-04-14 18:22:00,27.0,5.0,-100.00,WNW,284,24.0,32.0,39,0.00,,,-99.99,,2013-04-15 00:22:00,
2013-04-14 18:32:00,27.0,2.0,-100.00,WNW,284,24.0,34.0,35,0.00,,,-99.99,,2013-04-15 00:32:00,
2013-04-14 18:42:00,27.0,3.0,-100.00,WNW,289,22.0,38.0,35,0.00,,,-99.99,,2013-04-15 00:42:00,
2013-04-14 18:52:00,26.0,3.0,-100.00,WNW,289,23.0,32.0,36,0.00,,,-99.99,,2013-04-15 00:52:00,
2013-04-14 19:02:00,26.0,6.0,-100.00,WNW,285,16.0,26.0,40,0.00,,,-99.99,,2013-04-15 01:02:00,
2013-04-14 19:12:00,26.0,4.0,-100.00,WNW,285,14.0,21.0,39,0.00,,,-99.99,,2013-04-15 01:12:00,
2013-04-14 19:23:00,26.0,4.0,-100.00,WNW,285,21.0,28.0,37,0.00,,,-99.99,,2013-04-15 01:23:00,
2013-04-14 19:32:00,26.0,4.0,-100.00,WNW,285,18.0,24.0,38,0.00,,,-99.99,,2013-04-15 01:32:00,
2013-04-14 19:42:00,25.0,4.0,-100.00,WNW,285,17.0,23.0,40,0.00,,,-99.99,,2013-04-15 01:42:00,
2013-04-14 19:52:00,25.0,5.0,-100.00,WNW,287,17.0,24.0,41,0.00,,,-99.99,,2013-04-15 01:52:00,
2013-04-14 20:02:00,25.0,4.0,-100.00,WNW,284,16.0,22.0,41,0.00,,,-99.99,,2013-04-15 02:02:00,
2013-04-14 20:12:00,25.0,4.0,-100.00,WNW,284,15.0,20.0,41,0.00,,,-99.99,,2013-04-15 02:12:00,
2013-04-14 20:22:00,24.0,6.0,-100.00,WNW,289,12.0,17.0,46,0.00,,,-99.99,,2013-04-15 02:22:00,
2013-04-14 20:32:00,24.0,5.0,-100.00,WNW,284,12.0,18.0,44,0.00,,,-99.99,,2013-04-15 02:32:00,
2013-04-14 20:42:00,24.0,5.0,-100.00,WNW,285,12.0,16.0,44,0.00,,,-99.99,,2013-04-15 02:42:00,
2013-04-14 20:52:00,23.0,5.0,-100.00,WNW,291,10.0,14.0,46,0.00,,,-99.99,,2013-04-15 02:52:00,
2013-04-14 21:03:00,23.0,5.0,-100.00,WNW,288,11.0,14.0,45,0.00,,,-99.99,,2013-04-15 03:03:00,
2013-04-14 21:12:00,24.0,4.0,-100.00,WNW,288,11.0,16.0,42,0.00,,,-99.99,,2013-04-15 03:12:00,
2013-04-14 21:22:00,24.0,6.0,-100.00,WNW,294,9.0,12.0,47,0.00,,,-99.99,,2013-04-15 03:22:00,
2013-04-14 21:32:00,23.0,6.0,-100.00,WNW,287,6.0,10.0,46,0.00,,,-99.99,,2013-04-15 03:32:00,
2013-04-14 21:43:00,23.0,7.0,-100.00,West,275,2.0,6.0,49,0.00,,,-99.99,,2013-04-15 03:43:00,
2013-04-14 21:54:00,23.0,7.0,-100.00,WNW,295,1.0,5.0,50,0.00,,,-99.99,,2013-04-15 03:54:00,
2013-04-14 22:03:00,23.0,8.0,-100.00,ESE,110,1.0,4.0,51,0.00,,,-99.99,,2013-04-15 04:03:00,
2013-04-14 22:13:00,23.0,8.0,-100.00,SE,128,2.0,4.0,52,0.00,,,-99.99,,2013-04-15 04:13:00,
2013-04-14 22:22:00,23.0,8.0,-100.00,East,86,0.0,1.0,52,0.00,,,-99.99,,2013-04-15 04:22:00,
2013-04-14 22:33:00,23.0,6.0,-100.00,SW,220,0.0,0.0,49,0.00,,,-99.99,,2013-04-15 04:33:00,
2013-04-14 22:42:00,23.0,8.0,-100.00,WSW,248,1.0,4.0,51,0.00,,,-99.99,,2013-04-15 04:42:00,
2013-04-14 22:52:00,23.0,8.0,-100.00,WNW,287,4.0,6.0,53,0.00,,,-99.99,,2013-04-15 04:52:00,
2013-04-14 23:02:00,23.0,10.0,-100.00,West,265,6.0,9.0,57,0.00,,,-99.99,,2013-04-15 05:02:00,
2013-04-14 23:12:00,23.0,8.0,-100.00,West,263,7.0,10.0,52,0.00,,,-99.99,,2013-04-15 05:12:00,
2013-04-14 23:23:00,24.0,7.0,-100.00,West,260,9.0,12.0,49,0.00,,,-99.99,,2013-04-15 05:23:00,
2013-04-14 23:33:00,24.0,8.0,-100.00,West,274,12.0,17.0,48,0.00,,,-99.99,,2013-04-15 05:33:00,
2013-04-14 23:42:00,24.0,9.0,-100.00,West,274,13.0,22.0,52,0.00,,,-99.99,,2013-04-15 05:42:00,
2013-04-14 23:52:00,25.0,10.0,-100.00,West,271,14.0,21.0,52,0.00,,,-99.99,,2013-04-15 05:52:00,